This is the latest recevied weather packets stored in our database for station/object IU1DOF-3. If no packets are shown the sender has not sent any weather packets the latest 1 day(s).
| Time | Temp. | Humidity | Pressure | Rain* | Wind** | Luminosity | Snow |
|---|---|---|---|---|---|---|---|
| 1778097898 | 10.56° C | 90% | 1008.1 hPa | 0 mm | - | - | - |
| 1778092315 | 11.67° C | 79% | 1006.3 hPa | 0 mm | - | - | - |
| 1778091701 | 12.22° C | 74% | 1006.2 hPa | 0 mm | - | - | - |
| 1778091083 | 12.78° C | 74% | 1005.9 hPa | 0 mm | - | - | - |
| 1778090459 | 15° C | 70% | 1005.5 hPa | 0 mm | - | - | - |
| 1778089841 | 15° C | 70% | 1005.4 hPa | 0 mm | - | - | - |
| 1778087978 | 18.33° C | 65% | 1005.2 hPa | 0 mm | - | - | - |
| 1778087354 | 18.89° C | 66% | 1005.1 hPa | 0 mm | - | - | - |
| 1778086731 | 18.33° C | 68% | 1004.8 hPa | 0 mm | - | - | - |
| 1778085499 | 18.89° C | 64% | 1004.9 hPa | 0 mm | - | - | - |
| 1778084874 | 18.89° C | 64% | 1005 hPa | 0 mm | - | - | - |
| 1778084260 | 19.44° C | 61% | 1004.9 hPa | 0 mm | - | - | - |
| 1778083019 | 20° C | 63% | 1004.6 hPa | 0 mm | - | - | - |
| 1778082400 | 18.89° C | 67% | 1004.5 hPa | 0 mm | - | - | - |
| 1778081787 | 19.44° C | 63% | 1004.8 hPa | 0 mm | - | - | - |
| 1778079915 | 19.44° C | 38% | 1004.7 hPa | 0 mm | - | - | - |
| 1778079291 | 19.44° C | 43% | 1004.9 hPa | 0 mm | - | - | - |
| 1778076203 | 16.11° C | 70% | 1004.9 hPa | 0 mm | - | - | - |
| 1778075579 | 16.11° C | 55% | 1005 hPa | 0 mm | - | - | - |
| 1778074960 | 17.78° C | 38% | 1005 hPa | 0 mm | - | - | - |
| 1778074347 | 17.22° C | 41% | 1005 hPa | 0 mm | - | - | - |
| 1778073100 | 17.78° C | 42% | 1005.3 hPa | 0 mm | - | - | - |
| 1778072491 | 17.22° C | 40% | 1005.3 hPa | 0 mm | - | - | - |
| 1778071259 | 17.78° C | 43% | 1005.2 hPa | 0 mm | - | - | - |
| 1778070635 | 17.22° C | 44% | 1005 hPa | 0 mm | - | - | - |
* Rain latest hour (hover to see other rain measurements)
** Current wind speed in m/s (hover to see current wind gust speed)